sensor_id;sensor_type;location;lat;lon;timestamp;temperature;humidity
14873;DHT22;7528;48.576;19.122;2023-05-10T00:02:39;11.00;64.60
14873;DHT22;7528;48.576;19.122;2023-05-10T00:07:42;11.00;64.40
14873;DHT22;7528;48.576;19.122;2023-05-10T00:12:45;11.00;64.60
14873;DHT22;7528;48.576;19.122;2023-05-10T00:17:49;11.10;64.60
14873;DHT22;7528;48.576;19.122;2023-05-10T00:22:51;11.10;64.60
14873;DHT22;7528;48.576;19.122;2023-05-10T00:27:54;11.10;65.00
14873;DHT22;7528;48.576;19.122;2023-05-10T00:32:59;11.10;65.00
14873;DHT22;7528;48.576;19.122;2023-05-10T00:38:01;11.00;65.60
14873;DHT22;7528;48.576;19.122;2023-05-10T00:43:04;11.00;66.10
14873;DHT22;7528;48.576;19.122;2023-05-10T00:48:08;11.00;66.10
14873;DHT22;7528;48.576;19.122;2023-05-10T00:53:12;10.90;66.20
14873;DHT22;7528;48.576;19.122;2023-05-10T00:58:14;10.90;66.40
14873;DHT22;7528;48.576;19.122;2023-05-10T01:03:18;10.80;66.20
14873;DHT22;7528;48.576;19.122;2023-05-10T01:08:22;10.70;66.30
14873;DHT22;7528;48.576;19.122;2023-05-10T01:13:31;10.60;66.20
14873;DHT22;7528;48.576;19.122;2023-05-10T01:18:38;10.60;66.10
14873;DHT22;7528;48.576;19.122;2023-05-10T01:24:28;10.60;66.10
14873;DHT22;7528;48.576;19.122;2023-05-10T01:29:53;10.50;65.80
14873;DHT22;7528;48.576;19.122;2023-05-10T01:35:04;10.40;65.60
14873;DHT22;7528;48.576;19.122;2023-05-10T01:40:14;10.30;66.40
14873;DHT22;7528;48.576;19.122;2023-05-10T01:45:24;10.20;66.50
14873;DHT22;7528;48.576;19.122;2023-05-10T01:50:31;10.20;66.60
14873;DHT22;7528;48.576;19.122;2023-05-10T01:55:39;10.10;66.60
14873;DHT22;7528;48.576;19.122;2023-05-10T02:00:43;10.10;66.70
14873;DHT22;7528;48.576;19.122;2023-05-10T02:05:48;10.10;67.00
14873;DHT22;7528;48.576;19.122;2023-05-10T02:10:53;10.00;66.70
14873;DHT22;7528;48.576;19.122;2023-05-10T02:15:57;10.00;67.10
14873;DHT22;7528;48.576;19.122;2023-05-10T02:21:02;9.90;67.30
14873;DHT22;7528;48.576;19.122;2023-05-10T02:26:05;9.90;67.30
14873;DHT22;7528;48.576;19.122;2023-05-10T02:31:08;9.90;67.60
14873;DHT22;7528;48.576;19.122;2023-05-10T02:36:15;9.90;67.90
14873;DHT22;7528;48.576;19.122;2023-05-10T02:41:19;9.90;67.60
14873;DHT22;7528;48.576;19.122;2023-05-10T02:46:23;9.90;67.80
14873;DHT22;7528;48.576;19.122;2023-05-10T02:51:31;9.90;68.10
14873;DHT22;7528;48.576;19.122;2023-05-10T02:56:36;9.90;68.10
14873;DHT22;7528;48.576;19.122;2023-05-10T03:01:41;9.90;67.60
14873;DHT22;7528;48.576;19.122;2023-05-10T03:06:45;9.90;67.60
14873;DHT22;7528;48.576;19.122;2023-05-10T03:11:55;10.00;68.30
14873;DHT22;7528;48.576;19.122;2023-05-10T03:17:03;10.00;68.40
14873;DHT22;7528;48.576;19.122;2023-05-10T03:22:10;10.00;68.70
14873;DHT22;7528;48.576;19.122;2023-05-10T03:27:15;10.00;69.30
14873;DHT22;7528;48.576;19.122;2023-05-10T03:32:18;10.00;69.00
14873;DHT22;7528;48.576;19.122;2023-05-10T03:37:22;10.10;69.30
14873;DHT22;7528;48.576;19.122;2023-05-10T03:42:25;10.20;69.80
14873;DHT22;7528;48.576;19.122;2023-05-10T03:47:27;10.20;70.30
14873;DHT22;7528;48.576;19.122;2023-05-10T03:52:32;10.20;70.50
14873;DHT22;7528;48.576;19.122;2023-05-10T03:57:34;10.20;71.70
14873;DHT22;7528;48.576;19.122;2023-05-10T04:02:37;10.30;71.10
14873;DHT22;7528;48.576;19.122;2023-05-10T04:07:41;10.30;70.40
14873;DHT22;7528;48.576;19.122;2023-05-10T04:12:45;10.30;70.50
14873;DHT22;7528;48.576;19.122;2023-05-10T04:17:48;10.20;70.40
14873;DHT22;7528;48.576;19.122;2023-05-10T04:22:52;10.30;70.80
14873;DHT22;7528;48.576;19.122;2023-05-10T04:27:54;10.30;70.90
14873;DHT22;7528;48.576;19.122;2023-05-10T04:32:57;10.40;71.00
14873;DHT22;7528;48.576;19.122;2023-05-10T04:38:01;10.40;70.40
14873;DHT22;7528;48.576;19.122;2023-05-10T04:43:03;10.40;70.20
14873;DHT22;7528;48.576;19.122;2023-05-10T04:48:06;10.40;70.20
14873;DHT22;7528;48.576;19.122;2023-05-10T04:53:09;10.50;69.90
14873;DHT22;7528;48.576;19.122;2023-05-10T04:58:12;10.50;69.90
14873;DHT22;7528;48.576;19.122;2023-05-10T05:03:14;10.60;69.90
14873;DHT22;7528;48.576;19.122;2023-05-10T05:08:18;10.70;69.80
14873;DHT22;7528;48.576;19.122;2023-05-10T05:13:20;10.80;69.70
14873;DHT22;7528;48.576;19.122;2023-05-10T05:18:23;10.90;70.30
14873;DHT22;7528;48.576;19.122;2023-05-10T05:23:27;11.10;69.80
14873;DHT22;7528;48.576;19.122;2023-05-10T05:28:29;11.30;68.10
14873;DHT22;7528;48.576;19.122;2023-05-10T05:33:34;11.50;66.50
14873;DHT22;7528;48.576;19.122;2023-05-10T05:38:38;11.70;65.10
14873;DHT22;7528;48.576;19.122;2023-05-10T05:43:40;11.80;64.40
14873;DHT22;7528;48.576;19.122;2023-05-10T05:48:42;11.90;63.30
14873;DHT22;7528;48.576;19.122;2023-05-10T05:53:46;12.00;63.00
14873;DHT22;7528;48.576;19.122;2023-05-10T05:58:48;12.20;62.90
14873;DHT22;7528;48.576;19.122;2023-05-10T06:03:51;12.40;62.10
14873;DHT22;7528;48.576;19.122;2023-05-10T06:08:55;12.60;63.50
14873;DHT22;7528;48.576;19.122;2023-05-10T06:13:57;12.80;60.90
14873;DHT22;7528;48.576;19.122;2023-05-10T06:19:00;12.90;62.60
14873;DHT22;7528;48.576;19.122;2023-05-10T06:24:04;13.20;61.20
14873;DHT22;7528;48.576;19.122;2023-05-10T06:29:07;13.30;59.90
14873;DHT22;7528;48.576;19.122;2023-05-10T06:34:10;13.50;59.70
14873;DHT22;7528;48.576;19.122;2023-05-10T06:39:14;13.80;59.00
14873;DHT22;7528;48.576;19.122;2023-05-10T06:44:16;14.10;58.90
14873;DHT22;7528;48.576;19.122;2023-05-10T06:49:19;14.20;58.70
14873;DHT22;7528;48.576;19.122;2023-05-10T06:54:23;14.40;58.20
14873;DHT22;7528;48.576;19.122;2023-05-10T06:59:25;14.60;57.40
14873;DHT22;7528;48.576;19.122;2023-05-10T07:04:27;14.70;57.90
14873;DHT22;7528;48.576;19.122;2023-05-10T07:09:31;14.90;56.00
14873;DHT22;7528;48.576;19.122;2023-05-10T07:14:33;15.00;56.20
14873;DHT22;7528;48.576;19.122;2023-05-10T07:19:36;15.30;55.30
14873;DHT22;7528;48.576;19.122;2023-05-10T07:24:40;15.50;54.60
14873;DHT22;7528;48.576;19.122;2023-05-10T07:29:42;15.80;55.00
14873;DHT22;7528;48.576;19.122;2023-05-10T07:34:45;16.00;53.60
14873;DHT22;7528;48.576;19.122;2023-05-10T07:39:48;16.30;53.80
14873;DHT22;7528;48.576;19.122;2023-05-10T07:44:51;16.50;54.40
14873;DHT22;7528;48.576;19.122;2023-05-10T07:49:53;16.70;53.80
14873;DHT22;7528;48.576;19.122;2023-05-10T07:54:57;17.00;51.40
14873;DHT22;7528;48.576;19.122;2023-05-10T08:00:00;17.20;51.00
14873;DHT22;7528;48.576;19.122;2023-05-10T08:05:02;17.40;52.10
14873;DHT22;7528;48.576;19.122;2023-05-10T08:10:09;17.70;50.40
14873;DHT22;7528;48.576;19.122;2023-05-10T08:15:13;17.90;50.80
14873;DHT22;7528;48.576;19.122;2023-05-10T08:20:15;18.10;50.20
14873;DHT22;7528;48.576;19.122;2023-05-10T08:25:21;18.40;47.30
14873;DHT22;7528;48.576;19.122;2023-05-10T08:30:23;18.50;49.40
14873;DHT22;7528;48.576;19.122;2023-05-10T08:35:26;18.70;47.30
14873;DHT22;7528;48.576;19.122;2023-05-10T08:40:29;19.00;48.40
14873;DHT22;7528;48.576;19.122;2023-05-10T08:45:33;19.20;47.30
14873;DHT22;7528;48.576;19.122;2023-05-10T08:50:40;19.30;47.70
14873;DHT22;7528;48.576;19.122;2023-05-10T08:55:44;19.40;47.10
14873;DHT22;7528;48.576;19.122;2023-05-10T09:00:49;19.60;47.00
14873;DHT22;7528;48.576;19.122;2023-05-10T09:05:51;19.60;45.90
14873;DHT22;7528;48.576;19.122;2023-05-10T09:10:55;19.50;46.50
14873;DHT22;7528;48.576;19.122;2023-05-10T09:15:58;19.60;46.40
14873;DHT22;7528;48.576;19.122;2023-05-10T09:21:01;19.40;47.10
14873;DHT22;7528;48.576;19.122;2023-05-10T09:26:04;19.30;47.30
14873;DHT22;7528;48.576;19.122;2023-05-10T09:31:07;19.20;47.70
14873;DHT22;7528;48.576;19.122;2023-05-10T09:36:10;19.20;47.90
14873;DHT22;7528;48.576;19.122;2023-05-10T09:41:17;19.60;48.50
14873;DHT22;7528;48.576;19.122;2023-05-10T09:46:20;20.00;47.50
14873;DHT22;7528;48.576;19.122;2023-05-10T09:51:24;20.50;45.90
14873;DHT22;7528;48.576;19.122;2023-05-10T09:56:35;20.80;45.70
14873;DHT22;7528;48.576;19.122;2023-05-10T10:01:41;20.80;45.00
14873;DHT22;7528;48.576;19.122;2023-05-10T10:06:43;20.70;44.70
14873;DHT22;7528;48.576;19.122;2023-05-10T10:11:47;20.60;45.70
14873;DHT22;7528;48.576;19.122;2023-05-10T10:16:50;20.80;44.60
14873;DHT22;7528;48.576;19.122;2023-05-10T10:21:52;20.80;44.80
14873;DHT22;7528;48.576;19.122;2023-05-10T10:26:59;20.90;45.60
14873;DHT22;7528;48.576;19.122;2023-05-10T10:32:09;21.20;45.10
14873;DHT22;7528;48.576;19.122;2023-05-10T10:37:14;21.50;44.60
14873;DHT22;7528;48.576;19.122;2023-05-10T10:42:44;21.60;44.10
14873;DHT22;7528;48.576;19.122;2023-05-10T10:47:48;21.80;42.10
14873;DHT22;7528;48.576;19.122;2023-05-10T10:52:50;21.70;42.40
14873;DHT22;7528;48.576;19.122;2023-05-10T10:57:56;21.80;43.40
14873;DHT22;7528;48.576;19.122;2023-05-10T11:03:05;21.70;43.10
14873;DHT22;7528;48.576;19.122;2023-05-10T11:08:14;21.60;44.10
14873;DHT22;7528;48.576;19.122;2023-05-10T11:13:27;21.50;43.70
14873;DHT22;7528;48.576;19.122;2023-05-10T11:18:30;21.20;44.10
14873;DHT22;7528;48.576;19.122;2023-05-10T11:23:48;21.10;43.90
14873;DHT22;7528;48.576;19.122;2023-05-10T11:28:53;21.00;43.10
14873;DHT22;7528;48.576;19.122;2023-05-10T11:33:58;20.90;44.00
14873;DHT22;7528;48.576;19.122;2023-05-10T11:39:03;20.70;43.50
14873;DHT22;7528;48.576;19.122;2023-05-10T11:44:09;20.60;43.50
14873;DHT22;7528;48.576;19.122;2023-05-10T11:49:11;20.50;43.70
14873;DHT22;7528;48.576;19.122;2023-05-10T11:54:14;20.50;42.90
14873;DHT22;7528;48.576;19.122;2023-05-10T11:59:18;20.50;44.30
14873;DHT22;7528;48.576;19.122;2023-05-10T12:04:20;20.50;44.00
14873;DHT22;7528;48.576;19.122;2023-05-10T12:09:23;20.40;43.80
14873;DHT22;7528;48.576;19.122;2023-05-10T12:14:27;20.40;43.90
14873;DHT22;7528;48.576;19.122;2023-05-10T12:19:37;20.50;42.90
14873;DHT22;7528;48.576;19.122;2023-05-10T12:24:39;20.60;42.50
14873;DHT22;7528;48.576;19.122;2023-05-10T12:29:43;20.70;42.60
14873;DHT22;7528;48.576;19.122;2023-05-10T12:34:46;20.70;43.20
14873;DHT22;7528;48.576;19.122;2023-05-10T12:39:49;20.90;42.70
14873;DHT22;7528;48.576;19.122;2023-05-10T12:44:56;21.10;43.60
14873;DHT22;7528;48.576;19.122;2023-05-10T12:50:00;21.20;42.60
14873;DHT22;7528;48.576;19.122;2023-05-10T12:55:04;21.30;42.80
14873;DHT22;7528;48.576;19.122;2023-05-10T13:00:09;21.20;43.90
14873;DHT22;7528;48.576;19.122;2023-05-10T13:05:12;21.30;44.50
14873;DHT22;7528;48.576;19.122;2023-05-10T13:10:15;21.30;42.20
14873;DHT22;7528;48.576;19.122;2023-05-10T13:15:19;21.30;41.40
14873;DHT22;7528;48.576;19.122;2023-05-10T13:20:21;21.40;42.60
14873;DHT22;7528;48.576;19.122;2023-05-10T13:25:24;21.60;39.90
14873;DHT22;7528;48.576;19.122;2023-05-10T13:30:28;21.70;42.00
14873;DHT22;7528;48.576;19.122;2023-05-10T13:35:30;22.10;39.60
14873;DHT22;7528;48.576;19.122;2023-05-10T13:40:33;22.10;37.60
14873;DHT22;7528;48.576;19.122;2023-05-10T13:45:36;22.30;37.50
14873;DHT22;7528;48.576;19.122;2023-05-10T13:50:39;22.20;36.10
14873;DHT22;7528;48.576;19.122;2023-05-10T13:55:42;22.10;35.50
14873;DHT22;7528;48.576;19.122;2023-05-10T14:00:46;21.90;37.20
14873;DHT22;7528;48.576;19.122;2023-05-10T14:05:48;21.90;36.80
14873;DHT22;7528;48.576;19.122;2023-05-10T14:10:51;21.80;37.60
14873;DHT22;7528;48.576;19.122;2023-05-10T14:15:55;21.50;36.90
14873;DHT22;7528;48.576;19.122;2023-05-10T14:20:57;21.30;37.90
14873;DHT22;7528;48.576;19.122;2023-05-10T14:26:00;21.30;36.50
14873;DHT22;7528;48.576;19.122;2023-05-10T14:31:04;21.50;36.70
14873;DHT22;7528;48.576;19.122;2023-05-10T14:36:06;21.70;35.70
14873;DHT22;7528;48.576;19.122;2023-05-10T14:41:09;21.80;34.80
14873;DHT22;7528;48.576;19.122;2023-05-10T14:46:16;21.80;35.70
14873;DHT22;7528;48.576;19.122;2023-05-10T14:51:18;21.60;37.50
14873;DHT22;7528;48.576;19.122;2023-05-10T14:56:22;21.30;39.30
14873;DHT22;7528;48.576;19.122;2023-05-10T15:01:26;21.10;40.70
14873;DHT22;7528;48.576;19.122;2023-05-10T15:06:30;21.00;42.50
14873;DHT22;7528;48.576;19.122;2023-05-10T15:11:33;20.90;42.20
14873;DHT22;7528;48.576;19.122;2023-05-10T15:16:37;20.80;42.20
14873;DHT22;7528;48.576;19.122;2023-05-10T15:21:39;20.80;42.40
14873;DHT22;7528;48.576;19.122;2023-05-10T15:26:43;20.80;42.50
14873;DHT22;7528;48.576;19.122;2023-05-10T15:31:47;20.80;42.00
14873;DHT22;7528;48.576;19.122;2023-05-10T15:36:49;20.80;42.40
14873;DHT22;7528;48.576;19.122;2023-05-10T15:41:52;20.90;43.40
14873;DHT22;7528;48.576;19.122;2023-05-10T15:46:55;20.90;42.30
14873;DHT22;7528;48.576;19.122;2023-05-10T15:51:58;20.90;43.20
14873;DHT22;7528;48.576;19.122;2023-05-10T15:57:00;21.00;43.80
14873;DHT22;7528;48.576;19.122;2023-05-10T16:02:04;21.00;43.20
14873;DHT22;7528;48.576;19.122;2023-05-10T16:07:07;20.90;42.70
14873;DHT22;7528;48.576;19.122;2023-05-10T16:12:09;20.70;43.50
14873;DHT22;7528;48.576;19.122;2023-05-10T16:17:13;20.80;44.00
14873;DHT22;7528;48.576;19.122;2023-05-10T16:22:16;20.80;43.30
14873;DHT22;7528;48.576;19.122;2023-05-10T16:27:18;20.70;44.30
14873;DHT22;7528;48.576;19.122;2023-05-10T16:32:22;20.70;44.00
14873;DHT22;7528;48.576;19.122;2023-05-10T16:37:24;20.70;44.70
14873;DHT22;7528;48.576;19.122;2023-05-10T16:42:27;20.60;44.40
14873;DHT22;7528;48.576;19.122;2023-05-10T16:47:31;20.40;44.80
14873;DHT22;7528;48.576;19.122;2023-05-10T16:52:34;20.30;45.80
14873;DHT22;7528;48.576;19.122;2023-05-10T16:57:37;20.10;45.00
14873;DHT22;7528;48.576;19.122;2023-05-10T17:02:40;20.00;46.50
14873;DHT22;7528;48.576;19.122;2023-05-10T17:12:48;19.70;46.60
14873;DHT22;7528;48.576;19.122;2023-05-10T17:17:52;19.60;47.00
14873;DHT22;7528;48.576;19.122;2023-05-10T17:22:54;19.50;47.90
14873;DHT22;7528;48.576;19.122;2023-05-10T17:27:56;19.40;48.70
14873;DHT22;7528;48.576;19.122;2023-05-10T17:33:00;19.30;47.70
14873;DHT22;7528;48.576;19.122;2023-05-10T17:38:03;19.20;47.70
14873;DHT22;7528;48.576;19.122;2023-05-10T17:43:05;19.00;48.60
14873;DHT22;7528;48.576;19.122;2023-05-10T17:48:09;19.00;49.30
14873;DHT22;7528;48.576;19.122;2023-05-10T17:53:11;18.80;49.20
14873;DHT22;7528;48.576;19.122;2023-05-10T17:58:14;18.60;48.90
14873;DHT22;7528;48.576;19.122;2023-05-10T18:03:18;18.50;49.90
14873;DHT22;7528;48.576;19.122;2023-05-10T18:08:20;18.40;49.90
14873;DHT22;7528;48.576;19.122;2023-05-10T18:13:26;18.30;50.40
14873;DHT22;7528;48.576;19.122;2023-05-10T18:18:30;18.20;51.70
14873;DHT22;7528;48.576;19.122;2023-05-10T18:23:33;18.00;50.90
14873;DHT22;7528;48.576;19.122;2023-05-10T18:28:35;18.00;51.20
14873;DHT22;7528;48.576;19.122;2023-05-10T18:33:39;17.80;51.60
14873;DHT22;7528;48.576;19.122;2023-05-10T18:38:41;17.70;52.20
14873;DHT22;7528;48.576;19.122;2023-05-10T18:43:44;17.50;52.50
14873;DHT22;7528;48.576;19.122;2023-05-10T18:48:47;17.40;52.40
14873;DHT22;7528;48.576;19.122;2023-05-10T18:53:50;17.30;53.00
14873;DHT22;7528;48.576;19.122;2023-05-10T18:58:52;17.20;53.60
14873;DHT22;7528;48.576;19.122;2023-05-10T19:03:56;17.10;53.60
14873;DHT22;7528;48.576;19.122;2023-05-10T19:08:58;17.00;53.90
14873;DHT22;7528;48.576;19.122;2023-05-10T19:14:01;16.90;54.30
14873;DHT22;7528;48.576;19.122;2023-05-10T19:19:06;16.80;54.20
14873;DHT22;7528;48.576;19.122;2023-05-10T19:24:09;16.70;54.70
14873;DHT22;7528;48.576;19.122;2023-05-10T19:29:12;16.60;55.10
14873;DHT22;7528;48.576;19.122;2023-05-10T19:34:16;16.50;55.30
14873;DHT22;7528;48.576;19.122;2023-05-10T19:39:18;16.50;55.20
14873;DHT22;7528;48.576;19.122;2023-05-10T19:44:20;16.40;55.70
14873;DHT22;7528;48.576;19.122;2023-05-10T19:49:24;16.30;55.40
14873;DHT22;7528;48.576;19.122;2023-05-10T19:54:26;16.20;55.80
14873;DHT22;7528;48.576;19.122;2023-05-10T19:59:29;16.20;56.20
14873;DHT22;7528;48.576;19.122;2023-05-10T20:04:32;16.10;56.20
14873;DHT22;7528;48.576;19.122;2023-05-10T20:09:35;16.00;56.70
14873;DHT22;7528;48.576;19.122;2023-05-10T20:14:37;16.00;56.90
14873;DHT22;7528;48.576;19.122;2023-05-10T20:19:41;15.90;57.30
14873;DHT22;7528;48.576;19.122;2023-05-10T20:24:43;15.90;57.80
14873;DHT22;7528;48.576;19.122;2023-05-10T20:29:46;15.80;58.00
14873;DHT22;7528;48.576;19.122;2023-05-10T20:34:50;15.70;58.40
14873;DHT22;7528;48.576;19.122;2023-05-10T20:39:52;15.70;58.40
14873;DHT22;7528;48.576;19.122;2023-05-10T20:44:55;15.60;58.80
14873;DHT22;7528;48.576;19.122;2023-05-10T20:49:58;15.50;58.90
14873;DHT22;7528;48.576;19.122;2023-05-10T20:55:01;15.50;59.20
14873;DHT22;7528;48.576;19.122;2023-05-10T21:00:04;15.40;59.20
14873;DHT22;7528;48.576;19.122;2023-05-10T21:05:08;15.40;59.40
14873;DHT22;7528;48.576;19.122;2023-05-10T21:10:11;15.30;60.10
14873;DHT22;7528;48.576;19.122;2023-05-10T21:15:13;15.20;60.00
14873;DHT22;7528;48.576;19.122;2023-05-10T21:20:17;15.10;60.30
14873;DHT22;7528;48.576;19.122;2023-05-10T21:25:20;15.00;60.90
14873;DHT22;7528;48.576;19.122;2023-05-10T21:30:22;14.90;60.60
14873;DHT22;7528;48.576;19.122;2023-05-10T21:35:26;14.90;60.90
14873;DHT22;7528;48.576;19.122;2023-05-10T21:40:29;14.90;60.80
14873;DHT22;7528;48.576;19.122;2023-05-10T21:45:31;14.90;61.20
14873;DHT22;7528;48.576;19.122;2023-05-10T21:50:35;14.90;61.40
14873;DHT22;7528;48.576;19.122;2023-05-10T21:55:37;14.80;60.80
14873;DHT22;7528;48.576;19.122;2023-05-10T22:00:40;14.70;61.90
14873;DHT22;7528;48.576;19.122;2023-05-10T22:05:43;14.70;62.50
14873;DHT22;7528;48.576;19.122;2023-05-10T22:10:46;14.60;62.50
14873;DHT22;7528;48.576;19.122;2023-05-10T22:15:48;14.60;62.80
14873;DHT22;7528;48.576;19.122;2023-05-10T22:20:52;14.50;63.20
14873;DHT22;7528;48.576;19.122;2023-05-10T22:25:59;14.50;62.40
14873;DHT22;7528;48.576;19.122;2023-05-10T22:31:02;14.50;62.80
14873;DHT22;7528;48.576;19.122;2023-05-10T22:36:06;14.50;63.40
14873;DHT22;7528;48.576;19.122;2023-05-10T22:41:09;14.40;63.40
14873;DHT22;7528;48.576;19.122;2023-05-10T22:46:11;14.40;63.80
14873;DHT22;7528;48.576;19.122;2023-05-10T22:51:15;14.40;64.00
14873;DHT22;7528;48.576;19.122;2023-05-10T22:56:17;14.30;63.70
14873;DHT22;7528;48.576;19.122;2023-05-10T23:01:21;14.30;63.70
14873;DHT22;7528;48.576;19.122;2023-05-10T23:06:25;14.20;64.70
14873;DHT22;7528;48.576;19.122;2023-05-10T23:11:28;14.10;65.00
14873;DHT22;7528;48.576;19.122;2023-05-10T23:16:30;14.10;64.80
14873;DHT22;7528;48.576;19.122;2023-05-10T23:21:34;14.10;64.80
14873;DHT22;7528;48.576;19.122;2023-05-10T23:26:36;14.00;64.80
14873;DHT22;7528;48.576;19.122;2023-05-10T23:31:38;14.00;64.80
14873;DHT22;7528;48.576;19.122;2023-05-10T23:36:46;13.90;65.20
14873;DHT22;7528;48.576;19.122;2023-05-10T23:41:48;13.90;65.20
14873;DHT22;7528;48.576;19.122;2023-05-10T23:46:51;13.80;65.30
14873;DHT22;7528;48.576;19.122;2023-05-10T23:51:55;13.70;65.80
14873;DHT22;7528;48.576;19.122;2023-05-10T23:56:57;13.60;65.80
